createdAt,value
2023-01-13T00:02:17.017Z,87.23
2023-01-13T00:04:47.558Z,87.21
2023-01-13T00:07:17.135Z,87.20
2023-01-13T00:09:46.191Z,87.29
2023-01-13T00:12:15.703Z,87.31
2023-01-13T00:14:44.891Z,87.16
2023-01-13T00:17:15.644Z,86.96
2023-01-13T00:19:44.752Z,87.13
2023-01-13T00:22:14.287Z,87.14
2023-01-13T00:24:43.437Z,87.51
2023-01-13T00:27:12.847Z,87.38
2023-01-13T00:29:42.005Z,87.39
2023-01-13T00:32:11.392Z,87.58
2023-01-13T00:34:41.974Z,87.21
2023-01-13T00:37:13.082Z,87.40
2023-01-13T00:39:42.662Z,87.54
2023-01-13T00:42:29.163Z,87.23
2023-01-13T00:44:58.429Z,87.39
2023-01-13T00:47:27.858Z,87.09
2023-01-13T00:49:58.451Z,87.50
2023-01-13T00:52:28.274Z,87.12
2023-01-13T00:54:57.361Z,87.08
2023-01-13T00:57:27.097Z,87.42
2023-01-13T00:59:56.285Z,87.22
2023-01-13T01:02:25.736Z,87.35
2023-01-13T01:04:54.894Z,87.20
2023-01-13T01:07:25.644Z,86.92
2023-01-13T01:09:54.826Z,87.25
2023-01-13T01:12:24.217Z,87.06
2023-01-13T01:14:53.450Z,87.22
2023-01-13T01:17:22.855Z,87.01
2023-01-13T01:19:52.086Z,87.06
2023-01-13T01:22:21.440Z,86.99
2023-01-13T01:24:52.113Z,87.13
2023-01-13T01:27:21.586Z,87.26
2023-01-13T01:29:50.647Z,87.17
2023-01-13T01:32:20.251Z,87.19
2023-01-13T01:34:49.383Z,87.09
2023-01-13T01:37:18.748Z,87.18
2023-01-13T01:39:47.996Z,87.62
2023-01-13T01:42:37.100Z,87.41
2023-01-13T01:45:16.887Z,87.11
2023-01-13T01:47:49.006Z,87.33
2023-01-13T01:50:20.031Z,87.32
2023-01-13T01:52:55.318Z,87.35
2023-01-13T01:55:28.647Z,87.63
2023-01-13T01:58:06.908Z,87.72
2023-01-13T02:00:36.390Z,87.39
2023-01-13T02:03:07.604Z,87.54
2023-01-13T02:05:36.850Z,87.40
2023-01-13T02:08:06.915Z,87.36
2023-01-13T02:10:36.241Z,87.23
2023-01-13T02:13:10.703Z,87.40
2023-01-13T02:15:45.398Z,87.90
2023-01-13T02:18:31.022Z,88.10
2023-01-13T02:21:29.856Z,88.27
2023-01-13T02:24:52.147Z,88.39
2023-01-13T02:27:49.225Z,88.16
2023-01-13T02:30:45.147Z,88.59
2023-01-13T02:33:31.170Z,88.21
2023-01-13T02:36:07.673Z,88.59
2023-01-13T02:38:40.360Z,88.36
2023-01-13T02:41:32.707Z,88.38
2023-01-13T02:44:08.236Z,88.77
2023-01-13T02:46:46.845Z,89.19
2023-01-13T02:49:23.448Z,89.18
2023-01-13T02:51:56.133Z,89.58
2023-01-13T02:54:29.225Z,89.28
2023-01-13T02:57:01.874Z,89.76
2023-01-13T02:59:32.776Z,89.28
2023-01-13T03:02:04.622Z,89.74
2023-01-13T03:04:52.399Z,89.75
2023-01-13T03:07:57.511Z,90.11
2023-01-13T03:10:49.369Z,90.18
2023-01-13T03:13:46.614Z,89.98
2023-01-13T03:16:24.497Z,90.00
2023-01-13T03:19:12.500Z,89.85
2023-01-13T03:21:47.872Z,89.83
2023-01-13T03:24:22.084Z,90.91
2023-01-13T03:26:53.969Z,90.81
2023-01-13T03:29:27.805Z,91.29
2023-01-13T03:32:02.738Z,90.35
2023-01-13T03:34:37.707Z,90.36
2023-01-13T03:37:10.165Z,90.51
2023-01-13T03:39:46.796Z,90.59
2023-01-13T03:42:20.064Z,90.84
2023-01-13T03:44:54.950Z,90.80
2023-01-13T03:47:32.845Z,90.81
2023-01-13T03:50:06.888Z,90.94
2023-01-13T03:52:40.854Z,90.73
2023-01-13T03:55:13.731Z,90.51
2023-01-13T03:57:49.761Z,91.22
2023-01-13T04:00:24.308Z,90.83
2023-01-13T04:02:57.452Z,91.00
2023-01-13T04:05:29.868Z,91.54
2023-01-13T04:08:08.782Z,91.44
2023-01-13T04:10:44.287Z,91.32
2023-01-13T04:13:17.606Z,91.65
2023-01-13T04:15:48.151Z,91.58
2023-01-13T04:18:18.187Z,91.53
2023-01-13T04:20:50.821Z,92.26
2023-01-13T04:23:21.662Z,92.01
2023-01-13T04:25:52.257Z,92.39
2023-01-13T04:28:22.440Z,91.84
2023-01-13T04:30:51.959Z,92.33
2023-01-13T04:33:21.448Z,92.04
2023-01-13T04:35:52.768Z,92.14
2023-01-13T04:38:23.048Z,92.60
2023-01-13T04:40:52.716Z,92.13
2023-01-13T04:43:21.696Z,92.24
2023-01-13T04:45:51.491Z,92.37
2023-01-13T04:48:20.781Z,92.28
2023-01-13T04:50:51.484Z,92.78
2023-01-13T04:53:20.600Z,92.33
2023-01-13T04:55:49.923Z,92.17
2023-01-13T04:58:19.047Z,92.74
2023-01-13T05:00:48.532Z,93.20
2023-01-13T05:03:18.669Z,93.40
2023-01-13T05:05:53.327Z,93.02
2023-01-13T05:08:22.403Z,92.93
2023-01-13T05:10:51.735Z,93.02
2023-01-13T05:13:38.307Z,92.80
2023-01-13T05:16:27.969Z,93.39
2023-01-13T05:18:57.223Z,93.20
2023-01-13T05:21:53.520Z,93.51
2023-01-13T05:24:36.572Z,93.71
2023-01-13T05:27:06.099Z,93.53
2023-01-13T05:29:35.124Z,93.41
2023-01-13T05:32:06.698Z,93.27
2023-01-13T05:34:36.096Z,93.68
2023-01-13T05:37:07.964Z,93.49
2023-01-13T05:39:50.917Z,93.42
2023-01-13T05:42:37.596Z,93.76
2023-01-13T05:45:07.532Z,94.07
2023-01-13T05:47:36.658Z,93.86
2023-01-13T05:50:06.297Z,94.03
2023-01-13T05:52:37.220Z,93.85
2023-01-13T05:55:07.392Z,93.99
2023-01-13T05:57:36.672Z,93.95
2023-01-13T06:00:06.889Z,94.06
2023-01-13T06:03:44.200Z,94.24
2023-01-13T06:07:04.324Z,94.37
2023-01-13T06:34:00.904Z,94.84
2023-01-13T06:40:54.307Z,94.45
2023-01-13T06:43:23.029Z,94.08
2023-01-13T07:40:13.085Z,94.46
2023-01-13T07:47:36.504Z,94.15
2023-01-13T08:05:01.103Z,94.61
2023-01-13T08:22:40.131Z,95.35
2023-01-13T08:49:47.302Z,95.48
2023-01-13T08:57:03.388Z,95.23
2023-01-13T08:59:32.826Z,95.53
2023-01-13T09:02:29.084Z,95.05
2023-01-13T09:10:48.361Z,94.96
2023-01-13T09:13:20.311Z,94.63
2023-01-13T09:15:49.800Z,94.74
2023-01-13T09:19:36.308Z,94.77
2023-01-13T09:22:06.055Z,94.76
2023-01-13T09:24:35.199Z,94.74
2023-01-13T09:27:04.630Z,94.53
2023-01-13T09:30:52.424Z,94.47
2023-01-13T09:46:32.524Z,94.28
2023-01-13T09:49:03.858Z,94.23
2023-01-13T09:51:41.195Z,94.45
2023-01-13T09:54:17.280Z,94.22
2023-01-13T09:56:46.871Z,94.13
2023-01-13T09:59:16.309Z,94.37
2023-01-13T10:01:53.716Z,94.54
2023-01-13T10:04:29.406Z,94.28
2023-01-13T10:07:03.707Z,94.39
2023-01-13T10:09:40.325Z,94.05
2023-01-13T10:12:33.229Z,94.05
2023-01-13T10:15:02.426Z,94.08
2023-01-13T10:17:42.975Z,93.87
2023-01-13T10:20:18.733Z,93.89
2023-01-13T10:22:55.642Z,93.93
2023-01-13T10:25:36.003Z,93.85
2023-01-13T10:28:12.249Z,93.86
2023-01-13T10:30:43.722Z,93.87
2023-01-13T10:33:17.583Z,93.56
2023-01-13T10:35:54.525Z,93.62
2023-01-13T10:38:26.875Z,93.70
2023-01-13T10:40:58.094Z,93.41
2023-01-13T10:43:29.112Z,93.10
2023-01-13T10:46:04.098Z,93.06
2023-01-13T10:48:40.495Z,92.90
2023-01-13T10:51:26.000Z,92.66
2023-01-13T10:53:59.203Z,92.35
2023-01-13T10:56:31.995Z,92.00
2023-01-13T10:59:23.221Z,91.49
2023-01-13T11:02:03.926Z,91.17
2023-01-13T11:04:39.781Z,90.60
2023-01-13T11:07:23.759Z,89.67
2023-01-13T11:10:11.567Z,88.93
2023-01-13T11:12:53.486Z,88.36
2023-01-13T11:15:32.418Z,88.27
2023-01-13T11:18:06.373Z,87.98
2023-01-13T11:20:41.357Z,87.57
2023-01-13T11:23:21.863Z,87.17
2023-01-13T11:25:56.211Z,86.93
2023-01-13T11:28:45.213Z,86.40
2023-01-13T11:31:22.127Z,86.86
2023-01-13T11:33:56.537Z,86.37
2023-01-13T11:36:30.392Z,86.40
2023-01-13T11:39:09.434Z,86.52
2023-01-13T11:41:45.127Z,86.39
2023-01-13T11:44:22.486Z,86.00
2023-01-13T11:46:53.968Z,85.92
2023-01-13T11:49:28.019Z,85.66
2023-01-13T11:52:04.873Z,84.81
2023-01-13T11:54:54.473Z,84.70
2023-01-13T11:57:53.425Z,84.28
2023-01-13T12:00:56.790Z,84.53
2023-01-13T12:03:32.499Z,84.48
2023-01-13T12:06:21.242Z,84.62
2023-01-13T12:09:16.230Z,84.16
2023-01-13T12:12:17.790Z,84.14
2023-01-13T12:15:13.227Z,84.04
2023-01-13T12:17:51.055Z,84.55
2023-01-13T12:20:33.093Z,84.43
2023-01-13T12:23:07.363Z,84.44
2023-01-13T12:25:41.620Z,84.46
2023-01-13T12:28:18.396Z,84.50
2023-01-13T12:33:49.462Z,84.54
2023-01-13T12:36:48.931Z,84.28
2023-01-13T12:44:07.898Z,84.75
2023-01-13T12:46:56.200Z,84.43
2023-01-13T12:49:30.402Z,84.58
2023-01-13T12:52:15.663Z,84.35
2023-01-13T12:55:20.940Z,84.25
2023-01-13T12:58:16.375Z,84.55
2023-01-13T13:01:15.018Z,84.72
2023-01-13T13:04:06.305Z,84.78
2023-01-13T13:06:39.737Z,85.18
2023-01-13T13:09:23.929Z,84.77
2023-01-13T13:12:10.543Z,84.91
2023-01-13T13:15:04.367Z,85.06
2023-01-13T13:17:46.374Z,85.03
2023-01-13T13:20:54.000Z,85.07
2023-01-13T13:23:43.682Z,85.56
2023-01-13T13:26:25.607Z,85.36
2023-01-13T13:29:20.913Z,85.79
2023-01-13T13:32:19.247Z,85.57
2023-01-13T13:35:00.387Z,85.91
2023-01-13T13:38:06.936Z,85.80
2023-01-13T13:41:00.449Z,86.06
2023-01-13T13:43:49.967Z,86.27
2023-01-13T13:46:43.739Z,86.40
2023-01-13T13:49:13.314Z,86.50
2023-01-13T13:51:49.420Z,86.51
2023-01-13T13:54:22.392Z,86.37
2023-01-13T13:56:52.393Z,87.14
2023-01-13T13:59:24.357Z,86.84
2023-01-13T14:02:01.603Z,87.02
2023-01-13T14:04:33.585Z,87.30
2023-01-13T14:07:20.645Z,87.15
2023-01-13T14:09:53.764Z,87.44
2023-01-13T14:12:24.932Z,87.64
2023-01-13T14:14:56.844Z,87.99
2023-01-13T14:17:28.925Z,88.74
2023-01-13T14:20:02.568Z,88.08
2023-01-13T14:22:33.411Z,87.82
2023-01-13T14:25:02.906Z,87.40
2023-01-13T14:27:33.975Z,87.06
2023-01-13T14:30:04.718Z,86.84
2023-01-13T14:32:37.273Z,86.64
2023-01-13T14:35:08.894Z,86.35
2023-01-13T14:37:42.114Z,86.07
2023-01-13T14:40:44.739Z,86.04
2023-01-13T14:43:17.094Z,86.43
2023-01-13T14:45:58.010Z,86.24
2023-01-13T14:48:33.197Z,86.33
2023-01-13T14:51:05.021Z,86.51
2023-01-13T14:53:43.130Z,86.35
2023-01-13T14:56:47.110Z,86.42
2023-01-13T14:59:42.989Z,86.38
2023-01-13T15:02:39.235Z,86.49
2023-01-13T15:05:33.854Z,86.50
2023-01-13T15:08:21.554Z,86.59
2023-01-13T15:10:55.047Z,86.80
2023-01-13T15:13:35.747Z,87.07
2023-01-13T15:16:08.044Z,87.17
2023-01-13T15:18:40.121Z,87.00
2023-01-13T15:21:10.194Z,87.11
2023-01-13T15:23:41.216Z,87.24
2023-01-13T15:26:21.985Z,87.01
2023-01-13T15:28:52.699Z,87.25
2023-01-13T15:31:22.798Z,87.28
2023-01-13T15:33:52.449Z,87.28
2023-01-13T15:36:27.698Z,87.24
2023-01-13T15:38:59.383Z,87.08
2023-01-13T15:41:47.223Z,87.35
2023-01-13T15:44:35.697Z,87.29
2023-01-13T15:47:08.465Z,87.13
2023-01-13T15:49:41.191Z,87.75
2023-01-13T15:52:21.364Z,87.00
2023-01-13T15:54:50.966Z,86.90
2023-01-13T15:57:25.005Z,87.32
2023-01-13T15:59:57.247Z,87.21
2023-01-13T16:02:26.595Z,87.33
2023-01-13T16:04:56.078Z,87.69
2023-01-13T16:07:26.857Z,87.54
2023-01-13T16:09:56.431Z,87.31
2023-01-13T16:12:26.881Z,87.74
2023-01-13T16:14:56.340Z,87.54
2023-01-13T16:17:29.670Z,88.02
2023-01-13T16:19:59.015Z,88.13
2023-01-13T16:22:28.030Z,87.93
2023-01-13T16:24:57.810Z,88.17
2023-01-13T16:27:28.269Z,87.60
2023-01-13T16:29:57.697Z,88.18
2023-01-13T16:32:26.955Z,87.95
2023-01-13T16:34:56.335Z,87.88
2023-01-13T16:37:29.730Z,88.14
2023-01-13T16:39:59.152Z,87.51
2023-01-13T16:42:29.583Z,87.65
2023-01-13T16:45:06.955Z,87.33
2023-01-13T16:47:37.375Z,87.68
2023-01-13T16:50:07.584Z,87.38
2023-01-13T16:52:36.660Z,87.38
2023-01-13T16:55:06.400Z,87.24
2023-01-13T16:57:37.273Z,87.12
2023-01-13T17:00:07.587Z,87.22
2023-01-13T17:02:36.688Z,87.57
2023-01-13T17:05:06.612Z,87.46
2023-01-13T17:07:35.744Z,87.58
2023-01-13T17:10:05.703Z,87.00
2023-01-13T17:12:36.140Z,87.70
2023-01-13T17:15:06.192Z,87.40
2023-01-13T17:17:35.283Z,87.18
2023-01-13T17:20:04.956Z,87.76
2023-01-13T17:22:34.104Z,87.24
2023-01-13T17:25:03.597Z,87.49
2023-01-13T17:27:32.961Z,87.65
2023-01-13T17:30:04.510Z,87.17
2023-01-13T17:32:33.624Z,87.60
2023-01-13T17:35:02.966Z,87.54
2023-01-13T17:37:32.078Z,87.58
2023-01-13T17:40:01.739Z,87.64
2023-01-13T17:42:31.260Z,87.77
2023-01-13T17:45:01.990Z,87.25
2023-01-13T17:47:31.096Z,87.26
2023-01-13T17:50:00.441Z,87.74
2023-01-13T17:52:29.615Z,87.89
2023-01-13T17:54:58.939Z,87.78
2023-01-13T17:57:28.067Z,87.51
2023-01-13T17:59:58.342Z,87.44
2023-01-13T18:02:30.211Z,87.95
2023-01-13T18:04:59.821Z,88.12
2023-01-13T18:07:28.891Z,87.60
2023-01-13T18:09:58.259Z,88.00
2023-01-13T18:12:27.436Z,88.28
2023-01-13T18:14:56.718Z,88.30
2023-01-13T18:17:27.241Z,88.46
2023-01-13T18:20:14.176Z,88.38
2023-01-13T18:23:00.521Z,88.36
2023-01-13T18:25:47.134Z,87.93
2023-01-13T18:28:16.260Z,88.28
2023-01-13T18:30:45.748Z,87.77
2023-01-13T18:33:16.297Z,88.23
2023-01-13T18:35:45.722Z,88.20
2023-01-13T18:38:15.810Z,88.37
2023-01-13T18:40:45.459Z,88.50
2023-01-13T18:43:13.492Z,87.86
2023-01-13T18:45:42.884Z,88.23
2023-01-13T18:48:11.885Z,88.12
2023-01-13T18:50:42.633Z,88.16
2023-01-13T18:53:11.789Z,87.55
2023-01-13T18:55:41.155Z,87.45
2023-01-13T18:58:10.357Z,87.47
2023-01-13T19:00:40.099Z,88.06
2023-01-13T19:03:09.226Z,87.63
2023-01-13T19:05:38.680Z,87.93
2023-01-13T19:08:09.918Z,87.65
2023-01-13T19:10:41.044Z,87.27
2023-01-13T19:13:10.268Z,87.33
2023-01-13T19:15:39.658Z,87.94
2023-01-13T19:18:08.765Z,88.15
2023-01-13T19:20:39.716Z,87.61
2023-01-13T19:23:11.783Z,87.14
2023-01-13T19:25:41.175Z,87.50
2023-01-13T19:28:10.216Z,87.71
2023-01-13T19:30:39.642Z,87.23
2023-01-13T19:33:08.751Z,87.34
2023-01-13T19:35:38.982Z,87.48
2023-01-13T19:38:09.520Z,87.15
2023-01-13T19:40:39.194Z,87.81
2023-01-13T19:43:25.325Z,87.19
2023-01-13T19:45:54.768Z,87.35
2023-01-13T19:48:23.810Z,86.97
2023-01-13T19:50:53.146Z,87.40
2023-01-13T19:53:23.586Z,87.04
2023-01-13T19:55:53.024Z,86.86
2023-01-13T19:58:24.019Z,87.10
2023-01-13T20:00:54.259Z,87.56
2023-01-13T20:03:25.904Z,86.60
2023-01-13T20:05:56.068Z,87.99
2023-01-13T20:08:26.551Z,87.13
2023-01-13T20:11:16.117Z,87.32
2023-01-13T20:13:45.262Z,87.26
2023-01-13T20:16:14.668Z,87.52
2023-01-13T20:18:43.931Z,87.09
2023-01-13T20:21:13.185Z,86.83
2023-01-13T20:23:44.267Z,87.31
2023-01-13T20:26:13.758Z,87.44
2023-01-13T20:28:43.047Z,87.03
2023-01-13T20:31:14.476Z,87.35
2023-01-13T20:33:43.986Z,86.92
2023-01-13T20:36:26.360Z,87.13
2023-01-13T20:39:00.292Z,87.13
2023-01-13T20:41:47.395Z,87.17
2023-01-13T20:44:16.649Z,86.61
2023-01-13T20:46:46.819Z,86.84
2023-01-13T20:49:17.256Z,86.70
2023-01-13T20:51:46.789Z,86.94
2023-01-13T20:54:17.682Z,86.61
2023-01-13T20:56:48.120Z,86.74
2023-01-13T20:59:17.814Z,85.93
2023-01-13T21:01:47.259Z,86.12
2023-01-13T21:04:16.397Z,86.33
2023-01-13T21:06:45.809Z,86.87
2023-01-13T21:09:16.359Z,86.21
2023-01-13T21:12:02.991Z,86.35
2023-01-13T21:14:49.496Z,86.35
2023-01-13T21:17:39.723Z,86.20
2023-01-13T21:20:11.224Z,86.33
2023-01-13T21:22:41.296Z,86.52
2023-01-13T21:25:12.533Z,85.99
2023-01-13T21:27:44.033Z,86.21
2023-01-13T21:30:14.982Z,86.46
2023-01-13T21:32:45.868Z,85.71
2023-01-13T21:35:15.983Z,85.95
2023-01-13T21:37:46.034Z,85.68
2023-01-13T21:40:17.039Z,85.73
2023-01-13T21:43:03.577Z,86.30
2023-01-13T21:45:49.995Z,85.67
2023-01-13T21:48:19.472Z,85.63
2023-01-13T21:50:48.469Z,85.62
2023-01-13T21:53:17.881Z,86.54
2023-01-13T21:55:52.545Z,86.23
2023-01-13T21:58:21.983Z,85.51
2023-01-13T22:00:51.097Z,85.53
2023-01-13T22:03:20.519Z,85.79
2023-01-13T22:05:55.749Z,85.97
2023-01-13T22:08:25.280Z,85.94
2023-01-13T22:10:59.373Z,85.54
2023-01-13T22:13:47.854Z,85.70
2023-01-13T22:16:17.158Z,85.27
2023-01-13T22:18:46.572Z,85.07
2023-01-13T22:21:15.628Z,85.31
2023-01-13T22:23:44.924Z,85.48
2023-01-13T22:26:15.596Z,85.79
2023-01-13T22:28:45.013Z,85.12
2023-01-13T22:31:16.069Z,85.42
2023-01-13T22:33:47.060Z,85.26
2023-01-13T22:36:17.294Z,85.39
2023-01-13T22:38:46.698Z,85.25
2023-01-13T22:41:17.089Z,85.01
2023-01-13T22:43:46.529Z,85.05
2023-01-13T22:46:15.926Z,84.76
2023-01-13T22:48:45.947Z,85.22
2023-01-13T22:51:18.696Z,85.29
2023-01-13T22:53:48.090Z,84.27
2023-01-13T22:56:20.977Z,84.83
2023-01-13T22:58:53.694Z,84.96
2023-01-13T23:04:18.516Z,84.21
2023-01-13T23:09:34.635Z,84.62
2023-01-13T23:12:05.287Z,84.71
2023-01-13T23:14:34.851Z,84.58
2023-01-13T23:17:04.624Z,83.81
2023-01-13T23:19:34.050Z,84.25
2023-01-13T23:22:03.045Z,84.26
2023-01-13T23:27:20.822Z,83.83
2023-01-13T23:29:51.575Z,83.71
2023-01-13T23:32:20.818Z,84.74
2023-01-13T23:34:50.229Z,83.69
2023-01-13T23:37:19.420Z,83.64
2023-01-13T23:39:48.754Z,83.91
2023-01-13T23:42:19.276Z,84.03
2023-01-13T23:44:48.704Z,83.67
2023-01-13T23:47:17.718Z,83.83
2023-01-13T23:49:47.160Z,83.87
2023-01-13T23:52:16.107Z,83.33
2023-01-13T23:54:45.763Z,83.23
2023-01-13T23:57:14.852Z,83.81
2023-01-13T23:59:45.540Z,83.83
